createdAt,value
2024-04-22T00:03:40.595Z,66.21
2024-04-22T00:06:08.758Z,66.17
2024-04-22T00:08:36.568Z,66.20
2024-04-22T00:11:06.186Z,66.17
2024-04-22T00:13:35.170Z,66.11
2024-04-22T00:16:03.608Z,66.12
2024-04-22T00:18:31.574Z,66.18
2024-04-22T00:20:59.591Z,66.09
2024-04-22T00:23:27.561Z,66.08
2024-04-22T00:25:55.627Z,66.16
2024-04-22T00:28:25.192Z,66.12
2024-04-22T00:30:53.469Z,66.10
2024-04-22T00:33:21.618Z,66.15
2024-04-22T00:35:58.267Z,66.13
2024-04-22T00:38:27.352Z,66.15
2024-04-22T00:40:58.957Z,66.21
2024-04-22T00:43:26.982Z,66.19
2024-04-22T00:45:55.036Z,66.24
2024-04-22T00:48:24.712Z,66.30
2024-04-22T00:50:54.186Z,66.26
2024-04-22T00:53:22.864Z,66.12
2024-04-22T00:55:51.454Z,66.17
2024-04-22T00:58:20.834Z,66.27
2024-04-22T01:00:49.744Z,66.34
2024-04-22T01:03:19.240Z,66.51
2024-04-22T01:05:47.399Z,66.55
2024-04-22T01:08:16.306Z,66.60
2024-04-22T01:10:45.411Z,66.58
2024-04-22T01:13:14.169Z,66.70
2024-04-22T01:15:41.998Z,66.82
2024-04-22T01:18:18.334Z,66.86
2024-04-22T01:20:46.731Z,66.90
2024-04-22T01:23:15.046Z,66.97
2024-04-22T01:25:45.699Z,67.10
2024-04-22T01:28:13.667Z,67.16
2024-04-22T01:30:42.448Z,67.27
2024-04-22T01:33:10.469Z,67.33
2024-04-22T01:35:38.960Z,67.39
2024-04-22T01:38:07.179Z,67.45
2024-04-22T01:40:35.129Z,67.56
2024-04-22T01:43:03.075Z,67.61
2024-04-22T01:45:30.935Z,67.67
2024-04-22T01:47:59.006Z,67.72
2024-04-22T01:50:27.015Z,67.94
2024-04-22T01:52:54.994Z,68.00
2024-04-22T01:55:23.022Z,68.08
2024-04-22T01:57:51.313Z,68.10
2024-04-22T02:00:19.605Z,68.16
2024-04-22T02:02:47.763Z,68.15
2024-04-22T02:05:16.092Z,68.32
2024-04-22T02:07:44.064Z,68.45
2024-04-22T02:10:21.686Z,68.52
2024-04-22T02:12:52.717Z,68.52
2024-04-22T02:15:20.597Z,68.72
2024-04-22T02:17:48.970Z,68.77
2024-04-22T02:20:17.122Z,68.74
2024-04-22T02:22:45.166Z,68.86
2024-04-22T02:25:12.972Z,68.81
2024-04-22T02:27:41.217Z,69.00
2024-04-22T02:30:09.698Z,69.12
2024-04-22T02:32:38.155Z,69.21
2024-04-22T02:35:06.788Z,69.21
2024-04-22T02:37:35.319Z,69.29
2024-04-22T02:40:03.400Z,69.45
2024-04-22T02:42:31.224Z,69.42
2024-04-22T02:44:59.166Z,69.47
2024-04-22T02:47:27.309Z,69.47
2024-04-22T02:49:55.255Z,69.64
2024-04-22T02:52:23.249Z,69.68
2024-04-22T02:54:51.146Z,69.77
2024-04-22T02:57:19.027Z,69.87
2024-04-22T02:59:47.056Z,69.89
2024-04-22T03:02:15.100Z,69.90
2024-04-22T03:04:43.276Z,69.86
2024-04-22T03:07:11.161Z,69.95
2024-04-22T03:09:39.615Z,69.98
2024-04-22T03:12:07.821Z,70.08
2024-04-22T03:14:35.911Z,70.13
2024-04-22T03:17:04.544Z,70.08
2024-04-22T03:19:32.764Z,70.10
2024-04-22T03:22:00.677Z,70.05
2024-04-22T03:24:28.609Z,69.95
2024-04-22T03:26:56.610Z,70.01
2024-04-22T03:29:24.508Z,69.98
2024-04-22T03:31:52.516Z,70.05
2024-04-22T03:34:20.530Z,69.97
2024-04-22T03:36:48.955Z,70.05
2024-04-22T03:39:16.824Z,70.09
2024-04-22T03:41:45.542Z,70.14
2024-04-22T03:44:13.496Z,70.17
2024-04-22T03:46:41.782Z,70.20
2024-04-22T03:49:10.376Z,70.29
2024-04-22T03:51:38.130Z,70.33
2024-04-22T03:54:06.055Z,70.34
2024-04-22T03:56:34.527Z,70.40
2024-04-22T03:59:02.840Z,70.46
2024-04-22T04:01:30.881Z,70.69
2024-04-22T04:03:59.759Z,70.83
2024-04-22T04:06:30.803Z,70.87
2024-04-22T04:08:58.954Z,70.85
2024-04-22T04:11:27.362Z,70.93
2024-04-22T04:13:55.246Z,71.05
2024-04-22T04:16:23.267Z,71.03
2024-04-22T04:18:51.374Z,71.12
2024-04-22T04:21:19.236Z,71.18
2024-04-22T04:23:47.287Z,71.21
2024-04-22T04:26:15.213Z,71.30
2024-04-22T04:28:44.750Z,71.36
2024-04-22T04:31:14.125Z,71.45
2024-04-22T04:33:42.089Z,71.52
2024-04-22T04:36:10.710Z,71.52
2024-04-22T04:38:38.863Z,71.57
2024-04-22T04:41:06.792Z,71.65
2024-04-22T04:43:34.790Z,71.75
2024-04-22T04:46:02.832Z,71.69
2024-04-22T04:48:30.655Z,71.78
2024-04-22T04:50:58.634Z,71.78
2024-04-22T04:53:26.631Z,71.86
2024-04-22T04:55:54.422Z,71.85
2024-04-22T04:58:25.317Z,71.75
2024-04-22T05:00:53.897Z,71.63
2024-04-22T05:03:22.176Z,71.54
2024-04-22T05:06:03.802Z,71.44
2024-04-22T05:08:31.666Z,71.33
2024-04-22T05:11:04.421Z,71.37
2024-04-22T05:13:32.323Z,71.34
2024-04-22T05:16:00.206Z,71.45
2024-04-22T05:18:28.125Z,71.43
2024-04-22T05:20:56.127Z,71.57
2024-04-22T05:23:24.399Z,71.64
2024-04-22T05:25:52.262Z,71.72
2024-04-22T05:28:21.553Z,71.73
2024-04-22T05:30:49.952Z,71.66
2024-04-22T05:33:18.002Z,71.56
2024-04-22T05:35:45.858Z,71.61
2024-04-22T05:38:13.810Z,71.58
2024-04-22T05:40:41.599Z,71.49
2024-04-22T05:43:09.857Z,71.44
2024-04-22T05:45:37.765Z,71.24
2024-04-22T05:48:06.292Z,71.09
2024-04-22T05:50:34.220Z,70.90
2024-04-22T05:53:02.182Z,70.84
2024-04-22T05:55:30.141Z,70.79
2024-04-22T05:57:58.199Z,70.83
2024-04-22T06:00:26.138Z,70.35
2024-04-22T06:02:54.050Z,69.91
2024-04-22T06:05:22.142Z,69.69
2024-04-22T06:07:50.050Z,69.50
2024-04-22T06:10:19.566Z,69.37
2024-04-22T06:12:47.425Z,69.12
2024-04-22T06:15:15.379Z,68.88
2024-04-22T06:17:43.300Z,68.67
2024-04-22T06:20:11.853Z,68.43
2024-04-22T06:22:39.691Z,68.29
2024-04-22T06:25:08.669Z,68.01
2024-04-22T06:27:36.919Z,67.76
2024-04-22T06:30:05.146Z,67.55
2024-04-22T06:32:33.194Z,67.43
2024-04-22T06:35:01.082Z,67.25
2024-04-22T06:37:29.011Z,67.18
2024-04-22T06:39:57.426Z,67.08
2024-04-22T06:42:25.310Z,66.82
2024-04-22T06:44:53.178Z,66.53
2024-04-22T06:47:22.328Z,66.17
2024-04-22T06:49:50.206Z,65.92
2024-04-22T06:52:18.213Z,65.79
2024-04-22T06:54:46.117Z,65.46
2024-04-22T06:57:13.845Z,65.08
2024-04-22T06:59:42.046Z,64.79
2024-04-22T07:02:12.726Z,64.57
2024-04-22T07:04:43.301Z,64.31
2024-04-22T07:07:11.949Z,63.87
2024-04-22T07:09:39.958Z,63.51
2024-04-22T07:12:07.872Z,62.75
2024-04-22T07:14:35.947Z,62.00
2024-04-22T07:17:04.366Z,61.32
2024-04-22T07:19:32.306Z,60.34
2024-04-22T07:22:00.627Z,59.53
2024-04-22T07:24:29.302Z,58.65
2024-04-22T07:26:57.322Z,58.06
2024-04-22T07:29:25.578Z,57.84
2024-04-22T07:31:55.911Z,57.39
2024-04-22T07:34:24.412Z,57.22
2024-04-22T07:37:00.402Z,57.10
2024-04-22T07:39:30.460Z,57.11
2024-04-22T07:41:58.310Z,56.98
2024-04-22T07:44:26.372Z,56.79
2024-04-22T07:46:54.649Z,56.81
2024-04-22T07:49:22.629Z,56.56
2024-04-22T07:51:51.756Z,56.26
2024-04-22T07:54:19.928Z,56.47
2024-04-22T07:56:50.227Z,56.71
2024-04-22T07:59:18.737Z,56.14
2024-04-22T08:01:47.037Z,55.96
2024-04-22T08:04:15.554Z,56.55
2024-04-22T08:06:47.636Z,56.88
2024-04-22T08:09:15.591Z,57.25
2024-04-22T08:11:43.459Z,57.49
2024-04-22T08:14:11.526Z,57.91
2024-04-22T08:16:40.858Z,58.09
2024-04-22T08:19:08.634Z,58.54
2024-04-22T08:21:36.569Z,58.47
2024-04-22T08:24:04.696Z,58.48
2024-04-22T08:26:32.551Z,58.86
2024-04-22T08:29:00.614Z,58.98
2024-04-22T08:31:29.055Z,59.04
2024-04-22T08:33:58.347Z,59.06
2024-04-22T08:36:27.163Z,59.01
2024-04-22T08:38:55.756Z,59.01
2024-04-22T08:41:24.884Z,58.74
2024-04-22T08:43:52.704Z,58.53
2024-04-22T08:46:20.797Z,58.36
2024-04-22T08:48:49.048Z,58.04
2024-04-22T08:51:18.154Z,57.87
2024-04-22T08:53:46.096Z,57.80
2024-04-22T08:56:13.990Z,57.50
2024-04-22T08:58:41.763Z,57.20
2024-04-22T09:01:09.843Z,57.04
2024-04-22T09:03:37.889Z,57.14
2024-04-22T09:06:06.064Z,57.14
2024-04-22T09:08:44.310Z,57.15
2024-04-22T09:11:45.748Z,57.40
2024-04-22T09:14:04.444Z,57.63
2024-04-22T09:16:37.190Z,57.68
2024-04-22T09:19:05.718Z,57.65
2024-04-22T09:21:37.441Z,57.84
2024-04-22T09:24:06.653Z,58.13
2024-04-22T09:26:34.833Z,58.18
2024-04-22T09:29:03.677Z,57.96
2024-04-22T09:31:39.290Z,58.21
2024-04-22T09:34:08.765Z,58.31
2024-04-22T09:36:38.003Z,58.41
2024-04-22T09:39:06.487Z,58.67
2024-04-22T09:41:36.282Z,58.82
2024-04-22T09:44:10.348Z,58.85
2024-04-22T09:46:44.003Z,59.26
2024-04-22T09:49:14.594Z,59.18
2024-04-22T09:51:44.475Z,58.81
2024-04-22T09:54:12.492Z,58.59
2024-04-22T09:56:40.584Z,58.77
2024-04-22T09:59:10.000Z,58.93
2024-04-22T10:01:38.200Z,59.18
2024-04-22T10:04:06.957Z,59.54
2024-04-22T10:06:35.470Z,59.56
2024-04-22T10:09:03.729Z,59.77
2024-04-22T10:11:33.602Z,59.79
2024-04-22T10:14:16.762Z,59.94
2024-04-22T10:16:56.766Z,59.98
2024-04-22T10:19:27.932Z,60.14
2024-04-22T10:22:04.173Z,60.20
2024-04-22T10:24:38.994Z,59.83
2024-04-22T10:27:11.919Z,59.68
2024-04-22T10:29:43.939Z,58.19
2024-04-22T10:32:12.853Z,55.97
2024-04-22T10:34:41.503Z,53.60
2024-04-22T10:37:09.752Z,50.19
2024-04-22T10:39:37.713Z,47.92
2024-04-22T10:42:05.991Z,46.74
2024-04-22T10:44:34.573Z,46.48
2024-04-22T10:47:04.993Z,46.65
2024-04-22T10:49:32.984Z,46.53
2024-04-22T10:52:02.021Z,46.54
2024-04-22T10:54:30.329Z,45.66
2024-04-22T10:56:58.407Z,45.88
2024-04-22T10:59:26.431Z,45.90
2024-04-22T11:01:55.113Z,45.29
2024-04-22T11:04:23.597Z,45.12
2024-04-22T11:06:51.654Z,45.16
2024-04-22T11:09:19.965Z,45.12
2024-04-22T11:11:49.381Z,44.81
2024-04-22T11:14:17.751Z,45.06
2024-04-22T11:16:45.730Z,44.72
2024-04-22T11:19:13.590Z,44.44
2024-04-22T11:21:41.585Z,44.05
2024-04-22T11:24:09.510Z,43.57
2024-04-22T11:26:38.334Z,43.72
2024-04-22T11:29:07.740Z,44.46
2024-04-22T11:31:38.483Z,44.92
2024-04-22T11:34:10.563Z,45.52
2024-04-22T11:36:39.433Z,45.21
2024-04-22T11:39:15.472Z,45.81
2024-04-22T11:41:43.969Z,46.13
2024-04-22T11:44:12.898Z,46.42
2024-04-22T11:46:41.563Z,47.27
2024-04-22T11:49:09.878Z,47.37
2024-04-22T11:51:38.272Z,47.20
2024-04-22T11:54:06.652Z,47.79
2024-04-22T11:56:35.743Z,48.24
2024-04-22T11:59:03.943Z,49.11
2024-04-22T12:01:32.645Z,50.10
2024-04-22T12:04:01.153Z,51.20
2024-04-22T12:06:29.527Z,52.35
2024-04-22T12:09:00.174Z,53.03
2024-04-22T12:11:30.643Z,53.90
2024-04-22T12:13:58.700Z,54.75
2024-04-22T12:16:26.682Z,56.40
2024-04-22T12:18:54.537Z,56.56
2024-04-22T12:21:22.446Z,58.16
2024-04-22T12:23:50.291Z,58.25
2024-04-22T12:26:18.175Z,58.71
2024-04-22T12:28:46.190Z,58.65
2024-04-22T12:31:14.203Z,59.26
2024-04-22T12:33:51.224Z,59.26
2024-04-22T12:36:26.462Z,59.54
2024-04-22T12:38:54.273Z,60.26
2024-04-22T12:41:22.371Z,60.00
2024-04-22T12:43:50.463Z,60.57
2024-04-22T12:46:18.490Z,60.99
2024-04-22T12:48:46.359Z,60.40
2024-04-22T12:51:14.553Z,59.98
2024-04-22T12:53:42.436Z,59.93
2024-04-22T12:56:10.265Z,60.07
2024-04-22T12:58:38.448Z,60.91
2024-04-22T13:01:06.663Z,61.02
2024-04-22T13:03:34.626Z,60.56
2024-04-22T13:06:03.076Z,60.47
2024-04-22T13:08:31.108Z,60.58
2024-04-22T13:10:59.154Z,60.40
2024-04-22T13:13:27.605Z,60.35
2024-04-22T13:15:55.698Z,59.98
2024-04-22T13:18:23.988Z,59.92
2024-04-22T13:20:52.713Z,59.57
2024-04-22T13:23:21.511Z,59.15
2024-04-22T13:25:49.440Z,59.04
2024-04-22T13:28:17.474Z,59.03
2024-04-22T13:30:45.687Z,58.43
2024-04-22T13:33:13.580Z,58.10
2024-04-22T13:35:42.093Z,57.98
2024-04-22T13:38:09.931Z,57.95
2024-04-22T13:40:37.866Z,57.86
2024-04-22T13:43:05.740Z,57.36
2024-04-22T13:45:34.059Z,57.05
2024-04-22T13:48:02.451Z,56.82
2024-04-22T13:50:30.457Z,56.78
2024-04-22T13:53:06.092Z,56.88
2024-04-22T13:55:39.642Z,56.94
2024-04-22T13:58:07.527Z,57.04
2024-04-22T14:00:35.540Z,56.71
2024-04-22T14:03:03.562Z,56.91
2024-04-22T14:05:31.420Z,56.11
2024-04-22T14:08:00.034Z,55.16
2024-04-22T14:10:28.461Z,55.08
2024-04-22T14:12:56.453Z,54.79
2024-04-22T14:15:40.134Z,54.18
2024-04-22T14:18:12.685Z,53.72
2024-04-22T14:20:40.748Z,53.38
2024-04-22T14:23:08.575Z,53.51
2024-04-22T14:25:36.682Z,53.20
2024-04-22T14:28:05.028Z,53.35
2024-04-22T14:30:33.583Z,53.20
2024-04-22T14:33:01.877Z,53.08
2024-04-22T14:35:30.010Z,53.32
2024-04-22T14:37:58.361Z,53.22
2024-04-22T14:40:27.042Z,53.26
2024-04-22T14:42:55.621Z,53.00
2024-04-22T14:45:23.428Z,52.79
2024-04-22T14:47:54.632Z,52.63
2024-04-22T14:50:23.696Z,52.59
2024-04-22T14:52:52.131Z,52.35
2024-04-22T14:55:20.103Z,52.34
2024-04-22T14:57:48.013Z,51.83
2024-04-22T15:00:16.810Z,51.72
2024-04-22T15:02:45.048Z,51.75
2024-04-22T15:05:13.451Z,51.77
2024-04-22T15:07:41.572Z,51.91
2024-04-22T15:10:09.685Z,51.86
2024-04-22T15:12:37.694Z,52.05
2024-04-22T15:15:05.947Z,52.45
2024-04-22T15:17:34.066Z,52.54
2024-04-22T15:20:02.239Z,52.72
2024-04-22T15:22:30.389Z,52.87
2024-04-22T15:24:58.394Z,52.91
2024-04-22T15:27:26.226Z,52.90
2024-04-22T15:29:54.368Z,53.09
2024-04-22T15:32:22.301Z,53.03
2024-04-22T15:34:50.615Z,53.21
2024-04-22T15:37:20.092Z,53.57
2024-04-22T15:39:48.081Z,54.00
2024-04-22T15:42:15.935Z,54.12
2024-04-22T15:44:43.823Z,54.38
2024-04-22T15:47:11.892Z,54.60
2024-04-22T15:49:39.987Z,54.44
2024-04-22T15:52:08.180Z,54.36
2024-04-22T15:54:36.135Z,54.09
2024-04-22T15:57:04.479Z,54.08
2024-04-22T15:59:32.339Z,54.13
2024-04-22T16:02:00.407Z,54.19
2024-04-22T16:04:28.527Z,54.20
2024-04-22T16:06:56.567Z,54.46
2024-04-22T16:09:24.450Z,55.16
2024-04-22T16:11:52.311Z,55.30
2024-04-22T16:14:20.257Z,55.36
2024-04-22T16:16:48.734Z,55.36
2024-04-22T16:19:16.630Z,55.43
2024-04-22T16:21:44.564Z,55.35
2024-04-22T16:24:12.444Z,55.33
2024-04-22T16:26:40.247Z,55.31
2024-04-22T16:29:09.543Z,55.35
2024-04-22T16:31:39.333Z,55.21
2024-04-22T16:34:08.510Z,54.92
2024-04-22T16:36:36.710Z,54.89
2024-04-22T16:39:04.569Z,54.76
2024-04-22T16:41:32.644Z,54.77
2024-04-22T16:44:00.532Z,54.81
2024-04-22T16:46:28.415Z,54.85
2024-04-22T16:48:56.252Z,54.84
2024-04-22T16:51:24.063Z,54.76
2024-04-22T16:53:52.101Z,55.12
2024-04-22T16:56:20.204Z,55.20
2024-04-22T16:58:48.130Z,55.72
2024-04-22T17:01:16.107Z,55.64
2024-04-22T17:03:44.206Z,55.82
2024-04-22T17:06:12.227Z,57.26
2024-04-22T17:08:40.104Z,57.74
2024-04-22T17:11:08.426Z,58.27
2024-04-22T17:13:36.518Z,58.07
2024-04-22T17:16:05.094Z,59.80
2024-04-22T17:18:33.243Z,61.05
2024-04-22T17:21:01.400Z,61.15
2024-04-22T17:23:29.407Z,62.08
2024-04-22T17:25:57.674Z,62.75
2024-04-22T17:28:25.688Z,62.69
2024-04-22T17:30:53.685Z,61.97
2024-04-22T17:33:23.473Z,62.86
2024-04-22T17:35:52.375Z,63.20
2024-04-22T17:38:20.297Z,63.62
2024-04-22T17:40:57.104Z,64.12
2024-04-22T17:43:25.257Z,63.54
2024-04-22T17:46:09.385Z,63.89
2024-04-22T17:48:37.878Z,64.73
2024-04-22T17:51:06.007Z,64.86
2024-04-22T17:53:34.333Z,65.28
2024-04-22T17:56:02.468Z,66.26
2024-04-22T17:58:30.996Z,65.90
2024-04-22T18:00:59.356Z,67.03
2024-04-22T18:03:27.267Z,67.33
2024-04-22T18:05:55.738Z,67.72
2024-04-22T18:08:24.015Z,68.47
2024-04-22T18:10:52.179Z,67.24
2024-04-22T18:13:20.923Z,67.86
2024-04-22T18:15:48.847Z,69.31
2024-04-22T18:18:16.735Z,68.99
2024-04-22T18:20:48.350Z,69.22
2024-04-22T18:23:16.283Z,68.60
2024-04-22T18:25:44.343Z,68.69
2024-04-22T18:28:12.969Z,68.12
2024-04-22T18:30:45.330Z,67.84
2024-04-22T18:33:19.116Z,68.13
2024-04-22T18:35:54.403Z,68.37
2024-04-22T18:38:22.545Z,68.53
2024-04-22T18:40:50.871Z,69.06
2024-04-22T18:43:18.773Z,69.46
2024-04-22T18:45:46.877Z,69.56
2024-04-22T18:48:14.814Z,69.65
2024-04-22T18:50:43.141Z,69.73
2024-04-22T18:53:11.099Z,69.95
2024-04-22T18:55:38.963Z,70.22
2024-04-22T18:58:07.028Z,70.62
2024-04-22T19:00:34.956Z,70.54
2024-04-22T19:03:02.948Z,70.40
2024-04-22T19:05:30.806Z,70.32
2024-04-22T19:07:59.182Z,70.76
2024-04-22T19:10:27.159Z,71.13
2024-04-22T19:12:55.122Z,71.39
2024-04-22T19:15:23.512Z,71.40
2024-04-22T19:17:51.632Z,71.39
2024-04-22T19:20:21.574Z,71.63
2024-04-22T19:22:50.039Z,71.48
2024-04-22T19:25:17.964Z,71.49
2024-04-22T19:27:46.070Z,70.99
2024-04-22T19:30:13.986Z,70.92
2024-04-22T19:32:42.581Z,71.15
2024-04-22T19:35:10.614Z,70.73
2024-04-22T19:37:38.570Z,70.95
2024-04-22T19:40:07.701Z,70.88
2024-04-22T19:42:35.465Z,70.83
2024-04-22T19:45:03.800Z,70.91
2024-04-22T19:47:32.415Z,71.27
2024-04-22T19:50:00.769Z,71.13
2024-04-22T19:52:29.311Z,70.78
2024-04-22T19:54:57.125Z,70.31
2024-04-22T19:57:25.002Z,70.06
2024-04-22T19:59:54.687Z,69.89
2024-04-22T20:02:22.566Z,69.72
2024-04-22T20:04:50.587Z,69.85
2024-04-22T20:07:18.640Z,70.02
2024-04-22T20:09:46.616Z,69.90
2024-04-22T20:12:14.511Z,69.75
2024-04-22T20:14:42.477Z,69.63
2024-04-22T20:17:10.614Z,69.67
2024-04-22T20:19:39.669Z,69.42
2024-04-22T20:22:08.230Z,69.47
2024-04-22T20:24:36.366Z,69.47
2024-04-22T20:27:04.689Z,69.46
2024-04-22T20:29:33.147Z,68.92
2024-04-22T20:32:01.478Z,68.56
2024-04-22T20:34:29.678Z,68.40
2024-04-22T20:36:57.910Z,68.47
2024-04-22T20:39:25.698Z,68.72
2024-04-22T20:41:53.638Z,68.84
2024-04-22T20:44:21.721Z,68.72
2024-04-22T20:46:49.963Z,68.95
2024-04-22T20:49:17.796Z,69.05
2024-04-22T20:51:45.716Z,69.40
2024-04-22T20:54:13.570Z,69.55
2024-04-22T20:56:41.443Z,69.73
2024-04-22T20:59:09.414Z,69.87
2024-04-22T21:01:37.212Z,70.09
2024-04-22T21:04:05.651Z,70.46
2024-04-22T21:06:33.653Z,70.65
2024-04-22T21:09:01.860Z,71.26
2024-04-22T21:11:29.748Z,71.38
2024-04-22T21:14:02.197Z,71.34
2024-04-22T21:16:30.990Z,71.41
2024-04-22T21:19:07.442Z,71.47
2024-04-22T21:21:42.868Z,71.23
2024-04-22T21:24:10.679Z,71.06
2024-04-22T21:26:38.533Z,70.97
2024-04-22T21:29:06.551Z,70.73
2024-04-22T21:31:34.455Z,70.57
2024-04-22T21:36:33.555Z,70.97
2024-04-22T21:39:01.758Z,71.26
2024-04-22T21:41:29.520Z,71.24
2024-04-22T21:43:57.473Z,71.56
2024-04-22T21:46:25.463Z,71.66
2024-04-22T21:48:53.719Z,71.55
2024-04-22T21:51:21.726Z,71.23
2024-04-22T21:53:49.635Z,71.42
2024-04-22T21:56:17.433Z,71.12
2024-04-22T21:59:23.239Z,71.05
2024-04-22T22:02:29.052Z,71.15
2024-04-22T22:05:34.552Z,71.30
2024-04-22T22:08:02.504Z,71.21
2024-04-22T22:10:30.548Z,71.53
2024-04-22T22:12:58.635Z,71.34
2024-04-22T22:15:26.528Z,71.76
2024-04-22T22:17:57.544Z,72.10
2024-04-22T22:20:25.694Z,72.01
2024-04-22T22:22:53.969Z,72.10
2024-04-22T22:25:22.091Z,72.29
2024-04-22T22:27:52.170Z,72.34
2024-04-22T22:30:20.359Z,72.43
2024-04-22T22:32:48.336Z,72.26
2024-04-22T22:35:16.344Z,72.30
2024-04-22T22:37:44.235Z,73.25
2024-04-22T22:40:12.656Z,73.48
2024-04-22T22:42:40.589Z,72.92
2024-04-22T22:45:08.502Z,72.77
2024-04-22T22:47:36.534Z,73.18
2024-04-22T22:50:05.196Z,72.78
2024-04-22T22:52:33.115Z,73.45
2024-04-22T22:55:01.013Z,74.21
2024-04-22T22:57:31.662Z,74.39
2024-04-22T22:59:59.453Z,73.97
2024-04-22T23:02:27.354Z,74.14
2024-04-22T23:04:55.461Z,73.97
2024-04-22T23:07:23.562Z,73.94
2024-04-22T23:09:51.823Z,73.88
2024-04-22T23:12:19.809Z,73.92
2024-04-22T23:14:47.640Z,74.48
2024-04-22T23:17:15.573Z,73.95
2024-04-22T23:19:43.559Z,73.77
2024-04-22T23:22:11.351Z,73.82
2024-04-22T23:24:39.325Z,73.61
2024-04-22T23:27:07.293Z,73.70
2024-04-22T23:29:35.342Z,74.01
2024-04-22T23:32:03.479Z,74.11
2024-04-22T23:34:31.620Z,74.14
2024-04-22T23:36:59.588Z,74.16
2024-04-22T23:39:27.369Z,74.09
2024-04-22T23:41:55.343Z,73.97
2024-04-22T23:44:23.148Z,73.99
2024-04-22T23:46:56.648Z,73.77
2024-04-22T23:49:25.202Z,73.71
2024-04-22T23:51:53.390Z,73.51
2024-04-22T23:54:21.395Z,73.51
2024-04-22T23:56:59.836Z,73.49
2024-04-22T23:59:28.426Z,73.52
